Terminal Aerodrome Forecast
Issued by NWS Paducah, KY

Home | Current Version | Previous Version | Text Only | Print | Product List | Glossary On
Versions: 1 2 3 4 5 6 7 8 9 10 11 12 13 14 15
179
FTUS43 KPAH 150520
TAFEVV
TAF
KEVV 150520Z 1506/1606 20012KT P6SM SKC WS020/21040KT
     FM151200 23010KT P6SM VCTS BKN060CB
     FM151400 29014G22KT P6SM -SHRA BKN025
     FM151900 32010G18KT P6SM SCT040 BKN150=

USA.gov is the U.S. government's official web portal to all federal, state and local government web resources and services.